Time;durP1;ratioP1;P1;durP2;ratioP2;P2;SDS_P1;SDS_P2;PMS_P1;PMS_P2;Temp;Humidity;BMP_temperature;BMP_pressure;BME280_temperature;BME280_humidity;BME280_pressure;Samples;Min_cycle;Max_cycle;Signal;HPM_P1;HPM_P2
2023/10/09 00:01:01;;;;;;;13.38;7.07;;;;;;;15.33;75.70;101188.88;4196929;28;20491;-68
2023/10/09 00:03:06;;;;;;;12.93;6.90;;;;;;;15.33;76.29;101194.09;4196747;28;20040;-68
2023/10/09 00:05:19;;;;;;;12.38;6.88;;;;;;;15.31;76.27;101190.56;4196828;28;20067;-68
2023/10/09 00:07:30;;;;;;;12.10;6.80;;;;;;;15.26;75.97;101197.53;4196591;28;20059;-68
2023/10/09 00:09:41;;;;;;;10.07;6.05;;;;;;;15.23;75.80;101200.16;4195608;28;20033;-68
2023/10/09 00:11:44;;;;;;;18.70;7.68;;;;;;;15.24;76.17;101194.03;4196671;28;20064;-67
2023/10/09 00:13:52;;;;;;;19.00;7.15;;;;;;;15.19;76.45;101195.75;4195554;28;20068;-67
2023/10/09 00:15:59;;;;;;;10.75;6.32;;;;;;;15.18;76.65;101178.28;4196939;28;20352;-68
2023/10/09 00:18:04;;;;;;;15.18;6.72;;;;;;;15.21;75.79;101177.41;4196347;28;20068;-68
2023/10/09 00:20:19;;;;;;;11.40;6.03;;;;;;;15.21;76.01;101180.91;4196568;28;20551;-68
2023/10/09 00:22:29;;;;;;;12.63;6.75;;;;;;;15.19;76.27;101172.16;4196683;28;20553;-69
2023/10/09 00:24:34;;;;;;;14.93;6.70;;;;;;;15.22;76.34;101171.31;4196378;28;20048;-68
2023/10/09 00:26:43;;;;;;;10.98;6.38;;;;;;;15.21;76.74;101178.28;4196160;28;20029;-68
2023/10/09 00:28:47;;;;;;;12.60;7.18;;;;;;;15.23;76.53;101171.34;4193264;28;20036;-69
2023/10/09 00:30:52;;;;;;;17.80;7.22;;;;;;;15.29;75.96;101176.59;4191121;28;20041;-68
2023/10/09 00:33:03;;;;;;;14.48;6.35;;;;;;;15.24;75.48;101185.28;4194227;28;20071;-68
2023/10/09 00:35:36;;;;;;;15.10;6.47;;;;;;;15.21;76.05;101180.03;4195154;28;20402;-68
2023/10/09 00:37:38;;;;;;;10.75;5.85;;;;;;;15.12;76.37;101170.38;4194736;28;20047;-68
2023/10/09 00:39:48;;;;;;;13.15;6.53;;;;;;;15.10;76.17;101170.38;4194100;28;20033;-68
2023/10/09 00:41:50;;;;;;;12.30;6.30;;;;;;;15.13;76.49;101161.66;4207659;28;20131;-68
2023/10/09 00:43:59;;;;;;;13.82;7.13;;;;;;;15.15;76.25;101162.53;4212050;28;20036;-68
2023/10/09 00:46:03;;;;;;;13.60;7.22;;;;;;;15.13;76.27;101164.28;4211534;28;20040;-68
2023/10/09 00:48:08;;;;;;;15.57;6.10;;;;;;;15.14;76.05;101158.16;4211312;28;20039;-69
2023/10/09 00:50:21;;;;;;;13.50;7.20;;;;;;;15.26;75.65;101160.88;4195102;28;20090;-68
2023/10/09 00:52:31;;;;;;;14.38;6.70;;;;;;;15.15;76.22;101152.06;4192269;28;20480;-68
2023/10/09 00:54:41;;;;;;;14.10;6.45;;;;;;;15.14;75.78;101158.16;4195244;28;20043;-68
2023/10/09 00:56:51;;;;;;;11.77;6.25;;;;;;;15.12;76.34;101157.28;4178233;28;20048;-68
2023/10/09 00:59:00;;;;;;;15.13;6.32;;;;;;;15.16;76.44;101154.69;4194783;28;20029;-69
2023/10/09 01:01:04;;;;;;;13.23;6.45;;;;;;;15.07;76.65;101151.13;4190762;28;20097;-68
2023/10/09 01:03:19;;;;;;;11.35;5.18;;;;;;;15.07;76.39;101146.78;4193231;28;20036;-69
2023/10/09 01:05:26;;;;;;;14.50;6.22;;;;;;;15.12;75.73;101146.81;4195728;28;20068;-68
2023/10/09 01:07:31;;;;;;;12.73;6.13;;;;;;;15.08;76.50;101156.38;4195404;28;20040;-68
2023/10/09 01:09:37;;;;;;;12.30;5.85;;;;;;;15.08;76.38;101142.41;4194744;28;20056;-67
2023/10/09 01:12:03;;;;;;;14.73;6.80;;;;;;;15.06;76.81;101142.41;4194946;28;20029;-67
2023/10/09 01:14:12;;;;;;;14.25;6.43;;;;;;;15.15;75.88;101138.97;4194496;28;20051;-67
2023/10/09 01:16:16;;;;;;;14.63;6.65;;;;;;;15.19;75.35;101138.13;4194638;28;20036;-67
2023/10/09 01:18:20;;;;;;;15.40;6.60;;;;;;;15.12;75.61;101141.56;4194821;28;20071;-68
2023/10/09 01:20:30;;;;;;;11.80;6.50;;;;;;;15.10;75.85;101133.69;4194883;28;20036;-68
2023/10/09 01:22:32;;;;;;;15.13;5.78;;;;;;;15.07;76.51;101141.53;4194870;28;20372;-68
2023/10/09 01:24:38;;;;;;;16.35;6.68;;;;;;;15.12;76.18;101144.19;4194812;28;20071;-67
2023/10/09 01:26:44;;;;;;;14.13;7.18;;;;;;;15.14;76.21;101138.09;4194634;28;20048;-67
2023/10/09 01:28:49;;;;;;;14.10;5.90;;;;;;;15.11;76.11;101139.81;4192437;28;20471;-67
2023/10/09 01:30:52;;;;;;;16.77;6.22;;;;;;;15.09;75.96;101133.69;4195852;28;20040;-68
2023/10/09 01:32:58;;;;;;;18.02;6.07;;;;;;;15.12;76.20;101131.09;4194253;28;20042;-67
2023/10/09 01:35:01;;;;;;;14.60;6.18;;;;;;;15.09;76.17;101128.47;4194751;28;20128;-68
2023/10/09 01:37:11;;;;;;;14.90;7.15;;;;;;;14.99;76.03;101128.38;4194196;28;20395;-68
2023/10/09 01:39:23;;;;;;;14.68;5.82;;;;;;;14.99;75.95;101135.38;4194198;28;20047;-68
2023/10/09 01:41:28;;;;;;;15.32;5.85;;;;;;;15.05;75.78;101124.06;4189033;28;20036;-68
2023/10/09 01:43:34;;;;;;;13.32;5.60;;;;;;;15.08;76.63;101124.06;4194593;28;20421;-68
2023/10/09 01:45:42;;;;;;;14.77;5.80;;;;;;;15.03;76.61;101124.06;4211298;28;20044;-68
2023/10/09 01:47:53;;;;;;;18.13;6.55;;;;;;;15.01;76.87;101123.19;4192302;28;20441;-68
2023/10/09 01:49:57;;;;;;;11.18;5.85;;;;;;;15.07;76.25;101122.31;4191925;28;20120;-68
2023/10/09 01:52:03;;;;;;;;;;;;;;;14.97;76.25;101121.41;4197133;28;20331;-68
2023/10/09 01:54:06;;;;;;;;;;;;;;;14.92;76.74;101107.38;4197125;28;20301;-68
2023/10/09 01:56:14;;;;;;;14.23;6.03;;;;;;;14.96;76.02;101122.25;4197162;28;20289;-68
2023/10/09 01:58:24;;;;;;;12.55;5.70;;;;;;;15.03;76.50;101108.34;4196792;28;20062;-68
2023/10/09 02:00:29;;;;;;;14.93;5.63;;;;;;;15.07;75.62;101111.84;4195220;28;20024;-68
2023/10/09 02:02:33;;;;;;;12.85;6.88;;;;;;;15.08;75.39;101111.84;4198059;28;20483;-68
2023/10/09 02:04:35;;;;;;;14.10;5.45;;;;;;;15.07;75.93;101112.75;4197301;28;20044;-68
2023/10/09 02:06:38;;;;;;;20.05;6.20;;;;;;;15.08;76.00;101110.97;4197264;28;20460;-68
2023/10/09 02:08:49;;;;;;;12.80;5.47;;;;;;;15.10;75.77;101097.03;4198323;28;20087;-68
2023/10/09 02:10:55;;;;;;;14.73;6.38;;;;;;;15.08;75.13;101103.13;4197256;28;20036;-68
2023/10/09 02:12:59;;;;;;;17.92;7.07;;;;;;;15.10;75.35;101109.22;4197111;28;20060;-68
2023/10/09 02:15:15;;;;;;;15.43;6.68;;;;;;;15.10;75.38;101101.38;4195786;28;20510;-68
2023/10/09 02:17:18;;;;;;;15.63;6.20;;;;;;;15.11;75.04;101095.28;4209659;28;20052;-68
2023/10/09 02:19:31;;;;;;;12.40;5.70;;;;;;;15.12;75.64;101099.66;4213864;28;20097;-68
2023/10/09 02:21:39;;;;;;;11.65;5.78;;;;;;;15.08;75.78;101097.88;4198495;28;20075;-68
2023/10/09 02:23:49;;;;;;;14.27;5.57;;;;;;;15.06;75.14;101086.53;4180387;28;20144;-69
2023/10/09 02:25:56;;;;;;;15.52;6.15;;;;;;;14.89;76.39;101108.22;4198032;28;20040;-68
2023/10/09 02:28:00;;;;;;;16.38;6.07;;;;;;;14.91;75.67;101103.91;4196626;28;20036;-68
2023/10/09 02:30:15;;;;;;;18.90;7.22;;;;;;;14.94;75.93;101098.69;4196712;28;20046;-68
2023/10/09 02:32:25;;;;;;;17.17;6.80;;;;;;;14.98;75.28;101108.31;4195539;28;20033;-68
2023/10/09 02:34:29;;;;;;;17.23;7.40;;;;;;;14.91;75.69;101114.38;4197075;28;20044;-68
2023/10/09 02:36:33;;;;;;;13.77;6.20;;;;;;;14.94;75.00;101106.53;4192981;28;20074;-68
2023/10/09 02:38:40;;;;;;;;;;;;;;;14.88;75.25;101103.88;4197064;28;20283;-68
2023/10/09 02:41:07;;;;;;;12.55;5.32;;;;;;;14.95;74.73;101108.31;4196638;28;19958;-68
2023/10/09 02:43:17;;;;;;;13.40;5.70;;;;;;;14.95;75.66;101102.16;4209945;28;20040;-68
2023/10/09 02:45:29;;;;;;;14.82;5.75;;;;;;;14.87;75.94;101099.50;4196748;28;20127;-68
2023/10/09 02:47:38;;;;;;;20.75;7.32;;;;;;;14.86;75.79;101097.75;4196410;28;20041;-68
2023/10/09 02:49:41;;;;;;;20.02;6.97;;;;;;;14.94;75.34;101090.84;4196588;28;20060;-68
2023/10/09 02:51:47;;;;;;;21.20;7.63;;;;;;;15.05;75.38;101100.50;4196579;28;20171;-68
2023/10/09 02:53:51;;;;;;;19.83;8.32;;;;;;;15.08;74.67;101103.13;4196425;28;20066;-68
2023/10/09 02:56:11;;;;;;;21.58;8.85;;;;;;;15.05;74.93;101103.13;4196740;28;20048;-68
2023/10/09 02:58:20;;;;;;;23.17;6.72;;;;;;;14.98;75.42;101113.56;4196278;28;20418;-69
2023/10/09 03:00:29;;;;;;;21.98;7.50;;;;;;;14.97;75.05;101109.19;4197832;28;20037;-68
2023/10/09 03:02:32;;;;;;;15.35;6.05;;;;;;;14.93;74.64;101110.00;4195670;28;20096;-68
2023/10/09 03:04:37;;;;;;;14.52;5.95;;;;;;;14.95;75.66;101110.91;4197319;28;20040;-69
2023/10/09 03:06:45;;;;;;;15.27;7.28;;;;;;;14.97;75.72;101110.94;4197285;28;20037;-68
2023/10/09 03:08:48;;;;;;;14.15;6.60;;;;;;;15.00;74.82;101108.31;4196390;28;20098;-68
2023/10/09 03:10:51;;;;;;;12.73;5.95;;;;;;;15.01;75.32;101110.94;4192395;28;20025;-68
2023/10/09 03:12:54;;;;;;;16.70;6.97;;;;;;;14.97;75.15;101110.94;4197463;28;20036;-68
2023/10/09 03:14:58;;;;;;;16.38;6.15;;;;;;;14.98;74.97;101103.09;4196332;28;20058;-68
2023/10/09 03:17:02;;;;;;;15.05;5.72;;;;;;;14.97;75.31;101106.56;4196139;28;20045;-68
2023/10/09 03:19:06;;;;;;;12.90;6.97;;;;;;;14.96;75.52;101107.41;4197513;28;20410;-68
2023/10/09 03:21:09;;;;;;;15.35;5.72;;;;;;;14.94;74.93;101106.53;4193474;28;20297;-68
2023/10/09 03:23:14;;;;;;;16.58;7.22;;;;;;;14.92;75.13;101108.28;4196478;28;20079;-68
2023/10/09 03:25:17;;;;;;;19.77;6.78;;;;;;;14.91;75.16;101101.28;4195910;28;20040;-68
2023/10/09 03:27:19;;;;;;;19.37;6.57;;;;;;;14.92;75.02;101105.66;4195991;28;20600;-68
2023/10/09 03:29:22;;;;;;;20.65;7.07;;;;;;;14.93;75.52;101096.94;4197479;28;20036;-68
2023/10/09 03:31:26;;;;;;;13.30;5.45;;;;;;;14.84;74.82;101108.22;4192484;28;20434;-68
2023/10/09 03:33:32;;;;;;;15.68;5.53;;;;;;;14.80;75.31;101093.34;4197072;28;20037;-68
2023/10/09 03:35:36;;;;;;;12.55;6.03;;;;;;;14.79;75.90;101088.09;4195976;28;20466;-68
2023/10/09 03:37:39;;;;;;;14.95;5.20;;;;;;;14.74;75.49;101088.06;4196590;28;20060;-68
2023/10/09 03:39:42;;;;;;;14.18;6.55;;;;;;;14.78;75.71;101091.59;4197024;28;20032;-68
2023/10/09 03:41:47;;;;;;;16.05;6.03;;;;;;;14.73;75.81;101093.28;4196831;28;20032;-68
2023/10/09 03:43:50;;;;;;;18.02;7.45;;;;;;;14.71;76.18;101095.03;4197167;28;20544;-68
2023/10/09 03:45:54;;;;;;;19.52;7.07;;;;;;;14.66;76.28;101093.25;4196930;28;20036;-68
2023/10/09 03:48:02;;;;;;;13.30;6.15;;;;;;;14.65;76.18;101094.13;4195405;28;20044;-68
2023/10/09 03:50:24;;;;;;;18.17;6.85;;;;;;;14.66;76.49;101090.66;4195900;28;20094;-68
2023/10/09 03:52:28;;;;;;;16.10;6.28;;;;;;;14.62;76.04;101091.47;4194934;28;20058;-69
2023/10/09 03:54:32;;;;;;;15.90;6.03;;;;;;;14.59;76.55;101087.94;4191698;28;20033;-68
2023/10/09 03:56:35;;;;;;;10.82;5.93;;;;;;;14.58;76.58;101087.03;4194974;28;20040;-68
2023/10/09 03:58:39;;;;;;;14.00;6.13;;;;;;;14.60;76.48;101087.94;4196023;28;20078;-68
2023/10/09 04:00:45;;;;;;;14.73;6.43;;;;;;;14.69;76.23;101088.91;4195495;28;20040;-69
2023/10/09 04:02:49;;;;;;;21.00;7.10;;;;;;;14.66;76.56;101093.25;4196528;28;20042;-69
2023/10/09 04:04:53;;;;;;;17.63;6.20;;;;;;;14.65;75.64;101091.50;4196841;28;20093;-69
2023/10/09 04:06:58;;;;;;;14.90;6.45;;;;;;;14.62;76.66;101088.00;4196220;28;20044;-69
2023/10/09 04:09:13;;;;;;;17.63;7.07;;;;;;;14.62;76.51;101086.25;4196499;28;20068;-69
2023/10/09 04:11:22;;;;;;;16.42;6.07;;;;;;;14.62;76.15;101078.41;4193836;28;20043;-69
2023/10/09 04:13:33;;;;;;;14.05;6.15;;;;;;;14.63;76.52;101064.44;4196374;28;20050;-69
2023/10/09 04:15:36;;;;;;;18.33;6.80;;;;;;;14.63;75.85;101074.91;4196265;28;20040;-69
2023/10/09 04:17:42;;;;;;;15.48;7.22;;;;;;;14.65;76.77;101075.78;4196094;28;20047;-68
2023/10/09 04:19:48;;;;;;;17.10;7.03;;;;;;;14.64;75.73;101071.41;4195735;28;20074;-69
2023/10/09 04:21:55;;;;;;;15.90;5.97;;;;;;;14.62;76.77;101073.16;4190342;28;20166;-69
2023/10/09 04:26:25;;;;;;;14.55;5.85;;;;;;;14.60;76.26;101053.94;4195686;28;20044;-69
2023/10/09 04:28:33;;;;;;;18.65;7.15;;;;;;;14.60;76.03;101053.94;4195834;28;20036;-69
2023/10/09 04:30:40;;;;;;;13.60;6.45;;;;;;;14.60;76.62;101056.56;4196835;28;20480;-69
2023/10/09 04:32:45;;;;;;;17.35;6.47;;;;;;;14.59;76.84;101048.69;4196400;28;20040;-69
2023/10/09 04:34:57;;;;;;;16.42;6.22;;;;;;;14.57;76.37;101053.03;4196273;28;20505;-69
2023/10/09 04:37:00;;;;;;;18.23;6.93;;;;;;;14.56;76.64;101057.38;4195290;28;20063;-69
2023/10/09 04:39:34;;;;;;;18.25;7.05;;;;;;;14.64;76.21;101050.47;4197031;28;20036;-69
2023/10/09 04:41:51;;;;;;;22.13;6.97;;;;;;;14.61;76.12;101058.31;4192294;28;20036;-69
2023/10/09 04:44:03;;;;;;;19.63;6.95;;;;;;;14.60;76.16;101059.16;4196050;28;20491;-69
2023/10/09 04:46:12;;;;;;;20.30;7.82;;;;;;;14.70;75.77;101065.34;4196678;28;20127;-69
2023/10/09 04:48:32;;;;;;;16.38;7.72;;;;;;;14.73;75.64;101074.97;4196420;28;20449;-69
2023/10/09 04:51:20;;;;;;;15.10;5.82;;;;;;;14.63;76.29;101072.31;4196432;28;20043;-69
2023/10/09 04:55:38;;;;;;;13.23;6.15;;;;;;;14.61;76.23;101074.00;4195525;28;20144;-69
2023/10/09 04:58:00;;;;;;;18.73;7.70;;;;;;;14.62;75.62;101069.69;4196257;28;20043;-69
2023/10/09 05:00:22;;;;;;;13.63;5.85;;;;;;;14.64;75.76;101075.78;4195602;28;20044;-69
2023/10/09 05:02:24;;;;;;;17.67;6.90;;;;;;;14.63;76.40;101080.16;4190806;28;20120;-69
2023/10/09 05:04:41;;;;;;;21.48;7.00;;;;;;;14.62;76.03;101075.78;4194476;28;20123;-69
2023/10/09 05:06:54;;;;;;;20.45;7.40;;;;;;;14.63;76.10;101085.38;4194771;28;20109;-69
2023/10/09 05:09:07;;;;;;;17.42;6.38;;;;;;;14.61;75.97;101086.19;4195926;28;20044;-69
2023/10/09 05:11:15;;;;;;;25.15;8.90;;;;;;;14.60;75.91;101087.06;4196307;28;20037;-69
2023/10/09 05:13:42;;;;;;;18.00;6.75;;;;;;;14.60;76.30;101092.28;4196144;28;20548;-69
2023/10/09 05:15:46;;;;;;;16.58;6.45;;;;;;;14.62;76.28;101103.69;4193173;28;20047;-68
2023/10/09 05:17:56;;;;;;;14.57;6.15;;;;;;;14.63;75.94;101108.03;4191671;28;20036;-69
2023/10/09 05:22:36;;;;;;;19.48;6.20;;;;;;;14.63;76.40;101111.56;4192094;28;20481;-69
2023/10/09 05:24:45;;;;;;;18.88;6.75;;;;;;;14.61;75.82;101108.03;4196138;28;20040;-68
2023/10/09 05:26:52;;;;;;;13.60;6.75;;;;;;;14.62;76.48;101107.19;4197960;28;20032;-68
2023/10/09 05:28:58;;;;;;;17.98;6.10;;;;;;;14.62;76.56;101107.19;4199164;28;20068;-68
2023/10/09 05:31:06;;;;;;;12.25;6.07;;;;;;;14.65;76.19;101103.72;4193999;28;20548;-68
2023/10/09 05:35:40;;;;;;;15.52;5.95;;;;;;;14.64;76.60;101105.44;4189286;28;20052;-68
2023/10/09 05:37:45;;;;;;;19.58;7.25;;;;;;;14.65;76.45;101104.59;4195848;28;20024;-68
2023/10/09 05:40:10;;;;;;;16.10;6.05;;;;;;;14.65;75.91;101104.59;4199345;28;20036;-69
2023/10/09 05:42:17;;;;;;;15.85;6.68;;;;;;;14.65;76.43;101098.47;4196523;28;20434;-69
2023/10/09 05:47:03;;;;;;;19.02;7.00;;;;;;;14.62;76.66;101099.31;4197170;28;20051;-68
2023/10/09 05:49:09;;;;;;;12.93;6.10;;;;;;;14.62;76.14;101104.56;4197945;28;20413;-68
2023/10/09 05:51:41;;;;;;;18.42;7.10;;;;;;;14.65;76.23;101104.59;4181044;28;20095;-68
2023/10/09 06:03:45;;;;;;;17.35;5.85;;;;;;;14.58;77.15;101102.75;4198569;28;19930;-68
2023/10/09 06:06:01;;;;;;;13.27;6.30;;;;;;;14.61;77.00;101102.78;4196848;28;20061;-68
2023/10/09 06:08:06;;;;;;;18.55;7.15;;;;;;;14.65;77.05;101101.97;4197996;28;20094;-69
2023/10/09 06:10:18;;;;;;;13.43;6.60;;;;;;;14.69;77.39;101101.97;4198714;28;20050;-68
2023/10/09 06:14:57;;;;;;;16.75;6.18;;;;;;;14.73;76.72;101107.25;4198676;28;20471;-69
2023/10/09 06:17:22;;;;;;;16.20;6.88;;;;;;;14.70;77.64;101107.22;4198324;28;20090;-69
2023/10/09 06:19:27;;;;;;;16.13;7.07;;;;;;;14.72;77.69;101110.75;4197384;28;20127;-69
2023/10/09 06:24:15;;;;;;;15.50;6.53;;;;;;;14.76;77.47;101112.53;4198159;28;20074;-69
2023/10/09 06:26:24;;;;;;;17.13;7.00;;;;;;;14.81;77.80;101116.03;4198323;28;20064;-69
2023/10/09 06:28:33;;;;;;;14.82;7.55;;;;;;;14.81;77.36;101115.19;4198147;28;20044;-69
2023/10/09 06:30:44;;;;;;;11.93;5.78;;;;;;;14.78;77.44;101117.78;4198341;28;20071;-69
2023/10/09 06:32:50;;;;;;;16.55;6.65;;;;;;;14.78;77.74;101120.41;4198217;28;20036;-69
2023/10/09 06:34:56;;;;;;;14.75;6.28;;;;;;;14.83;77.63;101129.16;4198288;28;20414;-69
2023/10/09 06:37:06;;;;;;;19.27;6.68;;;;;;;14.83;77.14;101124.81;4196523;28;20051;-69
2023/10/09 06:41:37;;;;;;;18.38;7.07;;;;;;;14.86;77.53;101120.44;4197926;28;20046;-69
2023/10/09 06:43:47;;;;;;;21.65;7.45;;;;;;;14.84;77.32;101116.06;4198087;28;20094;-69
2023/10/09 06:45:54;;;;;;;19.48;8.48;;;;;;;14.91;77.51;101127.47;4197942;28;20036;-69
2023/10/09 06:48:07;;;;;;;24.60;9.32;;;;;;;14.90;77.00;101122.22;4196679;28;20068;-69
2023/10/09 06:50:24;;;;;;;29.80;9.88;;;;;;;14.97;77.07;101127.50;4198136;28;20041;-69
2023/10/09 06:52:57;;;;;;;19.02;8.20;;;;;;;14.95;76.57;101125.72;4197778;28;20068;-69
2023/10/09 06:54:50;;;;;;;17.85;6.70;;;;;;;14.92;76.85;101129.22;4197997;28;20082;-69
2023/10/09 06:57:13;;;;;;;19.38;7.00;;;;;;;14.96;76.60;101115.25;4197712;28;20039;-69
2023/10/09 06:59:20;;;;;;;15.18;6.85;;;;;;;14.96;76.57;101117.88;4195148;28;20038;-69
2023/10/09 07:01:39;;;;;;;12.43;6.03;;;;;;;15.01;76.80;101125.81;4197936;28;20123;-69
2023/10/09 07:03:52;;;;;;;16.67;6.38;;;;;;;15.04;76.81;101127.53;4191644;28;20067;-69
2023/10/09 07:06:04;;;;;;;22.75;7.13;;;;;;;15.11;76.50;101126.72;4196660;28;20040;-69
2023/10/09 07:08:28;;;;;;;11.43;5.38;;;;;;;15.09;76.10;101121.47;4195494;28;20041;-68
2023/10/09 07:10:39;;;;;;;19.25;6.93;;;;;;;15.11;76.21;101117.13;4197653;28;20131;-69
2023/10/09 07:12:53;;;;;;;15.48;7.05;;;;;;;15.14;76.69;101119.75;4197418;28;20036;-69
2023/10/09 07:17:26;;;;;;;28.70;7.32;;;;;;;15.27;75.65;101136.41;4196980;28;20131;-68
2023/10/09 07:19:35;;;;;;;30.88;7.28;;;;;;;15.26;75.90;101134.69;4194301;28;20036;-69
2023/10/09 07:21:38;;;;;;;21.77;7.43;;;;;;;15.31;75.57;101143.41;4197542;28;20041;-69
2023/10/09 07:23:48;;;;;;;16.80;6.75;;;;;;;15.33;75.66;101146.94;4197206;28;20083;-69
2023/10/09 07:26:17;;;;;;;19.80;7.35;;;;;;;15.37;75.31;101145.19;4197229;28;20094;-69
2023/10/09 07:28:29;;;;;;;15.32;6.78;;;;;;;15.39;75.19;101150.44;4196008;28;20059;-69
2023/10/09 07:30:37;;;;;;;19.65;7.03;;;;;;;15.45;75.78;101150.47;4194722;28;20475;-69
2023/10/09 07:32:43;;;;;;;21.83;6.85;;;;;;;15.50;75.07;101152.25;4197371;28;20032;-69
2023/10/09 07:34:54;;;;;;;18.58;7.57;;;;;;;15.54;75.49;101150.53;4193211;28;20036;-69
2023/10/09 07:37:03;;;;;;;17.40;6.80;;;;;;;15.58;75.60;101152.31;4192875;28;20468;-69
2023/10/09 07:39:16;;;;;;;18.45;6.32;;;;;;;15.57;75.64;101150.56;4197105;28;20040;-69
2023/10/09 07:41:37;;;;;;;16.48;6.05;;;;;;;15.60;75.06;101153.19;4191978;28;20458;-69
2023/10/09 07:43:45;;;;;;;14.93;6.70;;;;;;;15.65;75.22;101156.72;4193958;28;20060;-69
2023/10/09 07:48:14;;;;;;;17.73;6.68;;;;;;;15.76;75.85;101151.50;4194966;28;20048;-69
2023/10/09 07:50:21;;;;;;;19.70;6.50;;;;;;;15.81;75.39;101143.69;4196621;28;20070;-69
2023/10/09 07:52:26;;;;;;;21.27;6.72;;;;;;;15.79;75.82;101142.81;4196013;28;20036;-69
2023/10/09 07:54:32;;;;;;;17.02;6.20;;;;;;;15.82;75.93;101140.19;4196179;28;20044;-69
2023/10/09 07:56:41;;;;;;;21.92;8.05;;;;;;;15.89;75.79;101141.97;4195585;28;20123;-68
2023/10/09 07:58:47;;;;;;;17.80;6.07;;;;;;;15.88;75.87;101140.22;4194570;28;20060;-69
2023/10/09 08:03:23;;;;;;;22.20;6.97;;;;;;;15.87;75.89;101144.59;4178834;28;20036;-69
2023/10/09 08:05:33;;;;;;;20.70;6.97;;;;;;;15.91;75.84;101134.97;4194617;28;20071;-69
2023/10/09 08:07:35;;;;;;;14.93;5.95;;;;;;;15.97;75.38;101140.22;4195418;28;20070;-69
2023/10/09 08:14:42;;;;;;;18.58;6.18;;;;;;;16.02;73.30;101154.25;4196238;28;20040;-69
2023/10/09 08:16:46;;;;;;;15.48;6.03;;;;;;;16.04;73.37;101159.50;4196465;28;20494;-69
2023/10/09 08:18:51;;;;;;;12.25;5.00;;;;;;;16.08;73.93;101163.00;4196423;28;20036;-69
2023/10/09 08:23:28;;;;;;;14.70;5.57;;;;;;;16.19;74.20;101156.94;4193094;28;20082;-69
2023/10/09 08:25:32;;;;;;;18.27;6.05;;;;;;;16.31;73.45;101160.44;4196387;28;20486;-69
2023/10/09 08:27:54;;;;;;;12.35;6.00;;;;;;;16.35;73.62;101152.59;4188444;28;20036;-69
2023/10/09 08:32:38;;;;;;;19.08;5.85;;;;;;;16.53;72.86;101156.97;4224068;27;20392;-68
2023/10/09 08:34:53;;;;;;;13.90;6.35;;;;;;;16.55;72.49;101154.34;4227142;28;20044;-68
2023/10/09 08:37:00;;;;;;;;;;;;;;;16.53;71.96;101151.72;4224721;28;20383;-68
2023/10/09 08:39:16;;;;;;;21.38;6.38;;;;;;;16.59;72.09;101158.72;4209237;28;19924;-68
2023/10/09 08:41:22;;;;;;;19.83;6.25;;;;;;;16.74;71.86;101155.22;4207830;28;20044;-68
2023/10/09 08:43:24;;;;;;;18.95;6.38;;;;;;;16.86;71.72;101154.34;4210130;28;20028;-68
2023/10/09 08:45:28;;;;;;;13.45;5.22;;;;;;;16.91;71.17;101158.75;4201060;28;20047;-68
2023/10/09 08:47:33;;;;;;;14.40;4.78;;;;;;;16.95;70.99;101156.97;4194351;28;20466;-68
2023/10/09 08:49:37;;;;;;;18.30;5.55;;;;;;;16.97;70.82;101172.75;4198984;28;20040;-68
2023/10/09 08:51:42;;;;;;;15.07;5.63;;;;;;;17.02;70.50;101176.25;4203190;28;20151;-69
2023/10/09 08:53:45;;;;;;;12.57;5.35;;;;;;;17.08;69.77;101174.50;4196232;28;20044;-68
2023/10/09 08:55:48;;;;;;;20.03;5.67;;;;;;;17.24;69.63;101177.09;4210071;28;20040;-68
2023/10/09 08:57:53;;;;;;;21.15;6.72;;;;;;;17.27;69.66;101177.97;4201058;28;20737;-68
2023/10/09 08:59:56;;;;;;;15.38;5.65;;;;;;;17.38;69.13;101177.94;4209131;28;20039;-68
2023/10/09 09:01:59;;;;;;;16.57;6.00;;;;;;;17.47;68.80;101182.31;4190207;28;20061;-68
2023/10/09 09:04:05;;;;;;;14.75;5.40;;;;;;;17.52;69.00;101184.91;4199935;28;20040;-68
2023/10/09 09:06:08;;;;;;;10.40;3.97;;;;;;;17.54;69.57;101170.03;4209849;28;20041;-68
2023/10/09 09:08:24;;;;;;;14.23;5.63;;;;;;;17.58;69.10;101172.63;4202772;28;20063;-68
2023/10/09 09:10:35;;;;;;;17.00;5.43;;;;;;;17.60;69.18;101162.13;4190405;28;20049;-68
2023/10/09 09:12:40;;;;;;;22.90;5.90;;;;;;;17.69;69.07;101175.22;4196210;28;20128;-68
2023/10/09 09:14:45;;;;;;;16.48;5.47;;;;;;;17.71;68.78;101168.22;4198987;28;20063;-68
2023/10/09 09:16:49;;;;;;;19.77;5.40;;;;;;;17.73;68.43;101174.31;4194371;28;20040;-69
2023/10/09 09:19:00;;;;;;;16.67;5.40;;;;;;;17.76;68.68;101186.59;4194257;28;20395;-68
2023/10/09 09:21:21;;;;;;;26.55;5.90;;;;;;;17.83;68.84;101176.91;4189207;28;20068;-68
2023/10/09 09:23:26;;;;;;;15.93;5.68;;;;;;;17.87;68.70;101181.28;4204664;28;20131;-68
2023/10/09 09:25:44;;;;;;;20.42;5.65;;;;;;;17.96;68.50;101168.13;4203239;28;20029;-68
2023/10/09 09:27:52;;;;;;;14.32;4.85;;;;;;;18.05;68.18;101168.09;4191978;28;20132;-68
2023/10/09 09:29:55;;;;;;;16.85;4.55;;;;;;;18.03;68.01;101164.56;4192328;28;20079;-68
2023/10/09 09:32:06;;;;;;;17.92;4.60;;;;;;;18.06;68.06;101156.69;4193291;28;20504;-68
2023/10/09 09:34:15;;;;;;;16.20;5.10;;;;;;;18.08;68.23;101154.03;4193539;28;20406;-68
2023/10/09 09:36:19;;;;;;;18.05;5.70;;;;;;;18.07;68.03;101145.25;4197733;28;20090;-68
2023/10/09 09:38:23;;;;;;;20.08;5.70;;;;;;;18.10;68.44;101142.59;4208101;28;20045;-68
2023/10/09 09:40:29;;;;;;;19.55;5.65;;;;;;;18.13;67.89;101145.22;4209644;28;20144;-68
2023/10/09 09:42:37;;;;;;;11.68;4.85;;;;;;;18.19;67.86;101146.06;4196716;28;20505;-68
2023/10/09 09:44:44;;;;;;;19.40;4.97;;;;;;;18.22;67.89;101156.56;4182847;28;20367;-69
2023/10/09 09:46:48;;;;;;;14.23;4.68;;;;;;;18.34;67.06;101148.63;4182402;28;20037;-68
2023/10/09 09:48:54;;;;;;;14.88;5.28;;;;;;;18.36;67.84;101157.34;4186193;28;20040;-68
2023/10/09 09:50:56;;;;;;;16.15;5.30;;;;;;;18.44;67.44;101162.56;4180165;28;20079;-68
2023/10/09 09:53:00;;;;;;;19.85;5.47;;;;;;;18.55;66.94;101162.50;4182493;28;20043;-68
2023/10/09 09:55:05;;;;;;;10.70;4.63;;;;;;;18.60;66.32;101160.69;4183418;28;20490;-68
2023/10/09 09:57:12;;;;;;;18.67;5.40;;;;;;;18.66;65.62;101164.16;4178457;28;20037;-68
2023/10/09 09:59:21;;;;;;;14.50;4.82;;;;;;;18.72;66.34;101165.88;4182548;28;20033;-68
2023/10/09 10:01:31;;;;;;;13.30;4.45;;;;;;;18.66;66.39;101168.53;4186163;28;20041;-68
2023/10/09 10:03:38;;;;;;;16.52;5.25;;;;;;;18.66;66.14;101166.78;4195391;28;20041;-69
2023/10/09 10:05:46;;;;;;;15.30;4.43;;;;;;;18.66;66.13;101168.53;4197618;28;20056;-68
2023/10/09 10:07:49;;;;;;;16.02;5.25;;;;;;;18.62;66.65;101166.84;4196236;28;20522;-68
2023/10/09 10:09:54;;;;;;;13.48;4.38;;;;;;;18.64;66.53;101168.56;4181896;28;20482;-68
2023/10/09 10:12:04;;;;;;;14.00;4.40;;;;;;;18.65;66.35;101169.44;4186325;28;20045;-68
2023/10/09 10:14:10;;;;;;;16.58;4.13;;;;;;;18.63;66.13;101171.19;4181561;28;20100;-70
2023/10/09 10:16:19;;;;;;;17.88;4.57;;;;;;;18.66;66.05;101166.78;4181242;28;20060;-69
2023/10/09 10:18:23;;;;;;;17.10;4.10;;;;;;;18.69;66.17;101163.28;4180588;28;20043;-69
2023/10/09 10:20:26;;;;;;;13.30;4.75;;;;;;;18.71;66.07;101166.75;4182052;28;20044;-68
2023/10/09 10:22:29;;;;;;;15.98;4.10;;;;;;;18.72;66.24;101171.16;4180972;28;20432;-69
2023/10/09 10:24:57;;;;;;;16.58;4.60;;;;;;;18.75;65.28;101176.38;4179829;28;20037;-69
2023/10/09 10:27:28;;;;;;;13.85;4.20;;;;;;;18.71;65.74;101179.94;4183134;28;20051;-68
2023/10/09 10:29:34;;;;;;;13.18;4.20;;;;;;;18.72;65.90;101189.59;4179511;28;20051;-68
2023/10/09 10:31:56;;;;;;;10.52;4.53;;;;;;;18.77;65.36;101200.09;4181903;28;20044;-68
2023/10/09 10:34:10;;;;;;;15.05;4.95;;;;;;;18.78;65.58;101205.34;4180239;28;20048;-69
2023/10/09 10:36:22;;;;;;;12.90;4.70;;;;;;;18.80;66.08;101206.19;4197336;28;20040;-69
2023/10/09 10:38:34;;;;;;;14.52;4.35;;;;;;;18.88;66.64;101192.09;4197007;28;20036;-69
2023/10/09 10:40:38;;;;;;;13.57;4.20;;;;;;;18.94;67.03;101189.41;4195791;28;20037;-69